createdAt,value
2023-03-05T00:00:53.452Z,101018.88
2023-03-05T00:03:19.846Z,101011.09
2023-03-05T00:05:46.175Z,101012.88
2023-03-05T00:08:12.482Z,101012.53
2023-03-05T00:10:38.856Z,101005.69
2023-03-05T00:13:05.183Z,101010.13
2023-03-05T00:15:31.484Z,101012.34
2023-03-05T00:17:57.814Z,101014.44
2023-03-05T00:20:24.103Z,101010.84
2023-03-05T00:22:50.466Z,101014.50
2023-03-05T00:25:16.818Z,101008.34
2023-03-05T00:27:43.111Z,101014.44
2023-03-05T00:30:10.269Z,101011.09
2023-03-05T00:32:36.718Z,101012.69
2023-03-05T00:35:03.291Z,101004.66
2023-03-05T00:37:29.679Z,101008.25
2023-03-05T00:39:55.962Z,100997.97
2023-03-05T00:42:22.289Z,101004.50
2023-03-05T00:44:48.636Z,101008.53
2023-03-05T00:47:18.256Z,100993.78
2023-03-05T00:49:44.631Z,101004.91
2023-03-05T00:52:10.960Z,101001.66
2023-03-05T00:54:37.284Z,100993.97
2023-03-05T00:57:05.656Z,100987.19
2023-03-05T00:59:32.011Z,100987.97
2023-03-05T01:01:58.507Z,100979.63
2023-03-05T01:04:24.969Z,100974.50
2023-03-05T01:07:00.357Z,100980.16
2023-03-05T01:09:26.805Z,100979.19
2023-03-05T01:11:53.720Z,100982.06
2023-03-05T01:14:20.641Z,100980.16
2023-03-05T01:16:47.557Z,100977.25
2023-03-05T01:19:15.636Z,100971.31
2023-03-05T01:21:42.556Z,100970.38
2023-03-05T01:24:09.281Z,100974.25
2023-03-05T01:26:35.740Z,100980.34
2023-03-05T01:29:02.609Z,100963.34
2023-03-05T01:31:29.201Z,100955.66
2023-03-05T01:33:55.719Z,100955.47
2023-03-05T01:36:24.912Z,100956.56
2023-03-05T01:38:52.101Z,100955.66
2023-03-05T01:41:19.322Z,100952.50
2023-03-05T01:43:46.662Z,100951.53
2023-03-05T01:46:12.935Z,100963.44
2023-03-05T01:48:42.310Z,100953.34
2023-03-05T01:51:08.763Z,100956.94
2023-03-05T01:53:35.293Z,100952.75
2023-03-05T01:56:01.720Z,100953.03
2023-03-05T01:58:28.309Z,100953.59
2023-03-05T02:00:55.443Z,100951.97
2023-03-05T02:03:24.136Z,100945.47
2023-03-05T02:05:50.440Z,100936.69
2023-03-05T02:08:19.874Z,100941.03
2023-03-05T02:10:49.508Z,100934.69
2023-03-05T02:13:25.169Z,100935.19
2023-03-05T02:15:54.167Z,100935.38
2023-03-05T02:18:21.434Z,100937.94
2023-03-05T02:20:52.590Z,100933.16
2023-03-05T02:23:21.093Z,100922.88
2023-03-05T02:25:47.493Z,100930.59
2023-03-05T02:28:24.368Z,100924.00
2023-03-05T02:30:50.769Z,100922.53
2023-03-05T02:33:18.451Z,100923.47
2023-03-05T02:35:46.307Z,100921.91
2023-03-05T02:38:15.508Z,100925.09
2023-03-05T02:40:41.962Z,100920.06
2023-03-05T02:43:08.915Z,100915.75
2023-03-05T02:45:35.511Z,100916.38
2023-03-05T02:48:01.931Z,100919.25
2023-03-05T02:50:29.140Z,100913.44
2023-03-05T02:52:55.543Z,100905.94
2023-03-05T02:55:22.052Z,100886.97
2023-03-05T02:57:48.337Z,100898.88
2023-03-05T03:00:15.303Z,100895.72
2023-03-05T03:02:41.848Z,100887.81
2023-03-05T03:05:08.793Z,100892.28
2023-03-05T03:07:36.471Z,100888.00
2023-03-05T03:10:04.257Z,100879.63
2023-03-05T03:12:30.732Z,100881.00
2023-03-05T03:14:57.069Z,100879.28
2023-03-05T03:17:23.399Z,100868.56
2023-03-05T03:19:49.716Z,100875.69
2023-03-05T03:22:16.262Z,100878.94
2023-03-05T03:24:43.638Z,100874.66
2023-03-05T03:27:10.659Z,100871.22
2023-03-05T03:29:37.478Z,100865.16
2023-03-05T03:32:04.617Z,100875.59
2023-03-05T03:34:30.981Z,100874.50
2023-03-05T03:36:57.351Z,100872.59
2023-03-05T03:39:25.375Z,100872.78
2023-03-05T03:41:53.335Z,100869.19
2023-03-05T03:44:21.146Z,100864.81
2023-03-05T03:46:49.327Z,100860.28
2023-03-05T03:49:21.002Z,100855.53
2023-03-05T03:51:48.576Z,100860.44
2023-03-05T03:54:16.233Z,100849.22
2023-03-05T03:56:43.075Z,100853.94
2023-03-05T03:59:09.630Z,100848.81
2023-03-05T04:01:36.263Z,100852.22
2023-03-05T04:04:03.431Z,100857.63
2023-03-05T04:06:30.778Z,100848.47
2023-03-05T04:08:57.218Z,100837.41
2023-03-05T04:11:23.995Z,100851.38
2023-03-05T04:13:50.599Z,100839.91
2023-03-05T04:16:17.581Z,100845.19
2023-03-05T04:18:43.933Z,100835.78
2023-03-05T04:21:10.616Z,100847.19
2023-03-05T04:23:37.381Z,100833.97
2023-03-05T04:26:04.602Z,100838.69
2023-03-05T04:28:30.975Z,100837.66
2023-03-05T04:30:57.553Z,100841.34
2023-03-05T04:33:24.151Z,100840.59
2023-03-05T04:35:51.077Z,100838.69
2023-03-05T04:38:18.859Z,100824.81
2023-03-05T04:40:46.147Z,100836.06
2023-03-05T04:43:12.596Z,100832.63
2023-03-05T04:45:40.224Z,100838.63
2023-03-05T04:48:06.926Z,100835.53
2023-03-05T04:50:33.287Z,100835.09
2023-03-05T04:53:00.527Z,100840.41
2023-03-05T04:55:27.419Z,100836.28
2023-03-05T04:57:53.844Z,100839.72
2023-03-05T05:00:20.358Z,100837.66
2023-03-05T05:02:49.646Z,100823.03
2023-03-05T05:05:20.174Z,100837.25
2023-03-05T05:07:47.090Z,100826.97
2023-03-05T05:10:14.717Z,100838.38
2023-03-05T05:12:42.050Z,100834.06
2023-03-05T05:15:09.083Z,100822.78
2023-03-05T05:17:35.533Z,100823.81
2023-03-05T05:20:02.140Z,100829.19
2023-03-05T05:22:29.118Z,100823.38
2023-03-05T05:24:55.859Z,100816.34
2023-03-05T05:27:22.668Z,100813.69
2023-03-05T05:29:52.842Z,100813.44
2023-03-05T05:32:22.297Z,100814.22
2023-03-05T05:34:48.933Z,100809.84
2023-03-05T05:37:15.370Z,100810.28
2023-03-05T05:39:41.801Z,100810.28
2023-03-05T05:42:08.151Z,100811.41
2023-03-05T05:44:34.872Z,100811.31
2023-03-05T05:47:01.668Z,100816.28
2023-03-05T05:49:28.134Z,100813.19
2023-03-05T05:51:54.591Z,100809.75
2023-03-05T05:54:20.902Z,100815.41
2023-03-05T05:56:47.239Z,100806.84
2023-03-05T05:59:13.679Z,100802.66
2023-03-05T06:01:40.113Z,100808.47
2023-03-05T06:04:06.514Z,100805.47
2023-03-05T06:06:34.818Z,100809.34
2023-03-05T06:09:01.611Z,100812.03
2023-03-05T06:11:28.075Z,100802.66
2023-03-05T06:13:54.653Z,100810.59
2023-03-05T06:16:24.523Z,100801.16
2023-03-05T06:18:52.094Z,100808.03
2023-03-05T06:21:20.541Z,100805.38
2023-03-05T06:23:48.397Z,100800.13
2023-03-05T06:26:18.306Z,100803.59
2023-03-05T06:28:44.730Z,100796.22
2023-03-05T06:31:19.687Z,100789.38
2023-03-05T06:33:46.091Z,100789.13
2023-03-05T06:36:14.648Z,100794.00
2023-03-05T06:38:41.092Z,100795.56
2023-03-05T06:41:13.133Z,100788.69
2023-03-05T06:43:41.941Z,100789.72
2023-03-05T06:46:12.341Z,100792.38
2023-03-05T06:48:39.068Z,100796.75
2023-03-05T06:51:12.253Z,100792.19
2023-03-05T06:53:38.689Z,100795.66
2023-03-05T06:56:05.359Z,100793.75
2023-03-05T06:58:31.734Z,100809.25
2023-03-05T07:00:58.060Z,100795.66
2023-03-05T07:03:24.500Z,100802.06
2023-03-05T07:05:50.851Z,100805.47
2023-03-05T07:08:17.683Z,100802.16
2023-03-05T07:10:44.406Z,100804.81
2023-03-05T07:13:11.108Z,100798.47
2023-03-05T07:15:39.909Z,100795.56
2023-03-05T07:18:07.104Z,100803.16
2023-03-05T07:20:35.548Z,100802.41
2023-03-05T07:23:03.083Z,100806.69
2023-03-05T07:25:29.753Z,100793.16
2023-03-05T07:27:56.821Z,100800.50
2023-03-05T07:30:23.581Z,100804.88
2023-03-05T07:32:50.009Z,100800.28
2023-03-05T07:35:16.436Z,100799.22
2023-03-05T07:37:42.934Z,100793.31
2023-03-05T07:40:10.197Z,100797.09
2023-03-05T07:42:36.541Z,100799.84
2023-03-05T07:45:03.121Z,100795.53
2023-03-05T07:47:30.497Z,100797.59
2023-03-05T07:49:56.924Z,100792.88
2023-03-05T07:52:23.283Z,100793.56
2023-03-05T07:54:49.620Z,100796.38
2023-03-05T07:57:15.979Z,100793.44
2023-03-05T07:59:43.161Z,100799.63
2023-03-05T08:05:06.657Z,100791.28
2023-03-05T08:07:33.077Z,100788.63
2023-03-05T08:09:59.476Z,100797.09
2023-03-05T08:12:25.849Z,100798.13
2023-03-05T08:14:52.268Z,100798.03
2023-03-05T08:17:18.636Z,100790.94
2023-03-05T08:19:44.971Z,100795.28
2023-03-05T08:22:11.409Z,100788.09
2023-03-05T08:24:38.023Z,100780.91
2023-03-05T08:27:04.325Z,100780.53
2023-03-05T08:29:30.765Z,100773.78
2023-03-05T08:31:57.159Z,100780.25
2023-03-05T08:34:23.499Z,100771.63
2023-03-05T08:36:50.103Z,100769.72
2023-03-05T08:39:17.187Z,100774.69
2023-03-05T08:41:43.543Z,100780.41
2023-03-05T08:44:10.204Z,100765.56
2023-03-05T08:46:39.516Z,100770.88
2023-03-05T08:49:07.342Z,100770.03
2023-03-05T08:51:35.688Z,100770.88
2023-03-05T08:54:06.788Z,100771.06
2023-03-05T08:56:34.796Z,100767.41
2023-03-05T08:59:01.656Z,100763.69
2023-03-05T09:01:28.295Z,100765.50
2023-03-05T09:03:54.842Z,100760.69
2023-03-05T09:06:21.299Z,100760.28
2023-03-05T09:08:47.606Z,100756.41
2023-03-05T09:11:14.331Z,100754.69
2023-03-05T09:13:41.069Z,100747.00
2023-03-05T09:16:11.414Z,100761.81
2023-03-05T09:18:40.143Z,100756.59
2023-03-05T09:21:08.816Z,100749.88
2023-03-05T09:23:35.530Z,100754.41
2023-03-05T09:26:02.376Z,100745.66
2023-03-05T09:28:28.741Z,100753.38
2023-03-05T09:30:55.226Z,100748.81
2023-03-05T09:33:21.546Z,100747.00
2023-03-05T09:35:48.732Z,100746.78
2023-03-05T09:38:15.418Z,100739.78
2023-03-05T09:41:07.668Z,100744.13
2023-03-05T09:43:44.036Z,100740.84
2023-03-05T09:46:28.240Z,100736.38
2023-03-05T09:49:12.447Z,100734.84
2023-03-05T09:51:42.925Z,100731.63
2023-03-05T09:54:31.027Z,100728.75
2023-03-05T09:57:02.606Z,100724.88
2023-03-05T09:59:28.951Z,100725.84
2023-03-05T10:02:16.954Z,100718.22
2023-03-05T10:05:00.185Z,100715.66
2023-03-05T10:07:39.743Z,100724.88
2023-03-05T10:10:14.206Z,100719.56
2023-03-05T10:12:43.738Z,100705.13
2023-03-05T10:15:15.930Z,100713.59
2023-03-05T10:18:03.504Z,100710.09
2023-03-05T10:20:56.567Z,100702.56
2023-03-05T10:23:29.453Z,100709.13
2023-03-05T10:26:28.930Z,100707.22
2023-03-05T10:29:17.159Z,100694.19
2023-03-05T10:32:01.204Z,100697.59
2023-03-05T10:34:38.111Z,100695.69
2023-03-05T10:37:35.242Z,100690.25
2023-03-05T10:40:13.463Z,100682.28
2023-03-05T10:42:49.926Z,100683.34
2023-03-05T10:45:24.299Z,100686.56
2023-03-05T10:47:50.627Z,100682.09
2023-03-05T10:50:26.812Z,100681.69
2023-03-05T10:53:19.432Z,100680.66
2023-03-05T10:55:45.765Z,100676.44
2023-03-05T10:58:14.356Z,100675.75
2023-03-05T11:00:57.159Z,100674.38
2023-03-05T11:03:23.628Z,100672.66
2023-03-05T11:06:02.832Z,100674.38
2023-03-05T11:08:36.241Z,100665.41
2023-03-05T11:11:22.408Z,100665.81
2023-03-05T11:13:57.277Z,100663.47
2023-03-05T11:16:26.849Z,100665.81
2023-03-05T11:19:16.301Z,100662.16
2023-03-05T11:21:44.276Z,100658.69
2023-03-05T11:24:15.284Z,100660.06
2023-03-05T11:26:56.527Z,100663.09
2023-03-05T11:29:29.972Z,100657.41
2023-03-05T11:31:56.753Z,100653.06
2023-03-05T11:34:31.292Z,100659.56
2023-03-05T11:36:57.650Z,100648.97
2023-03-05T11:39:25.676Z,100649.47
2023-03-05T11:41:57.830Z,100639.63
2023-03-05T11:44:33.338Z,100640.06
2023-03-05T11:47:02.498Z,100637.31
2023-03-05T11:49:32.949Z,100627.63
2023-03-05T11:52:10.561Z,100632.06
2023-03-05T11:54:46.116Z,100627.22
2023-03-05T11:57:14.326Z,100616.19
2023-03-05T11:59:41.592Z,100619.94
2023-03-05T12:02:19.637Z,100600.34
2023-03-05T12:04:47.108Z,100606.44
2023-03-05T12:07:18.521Z,100601.78
2023-03-05T12:09:47.766Z,100595.25
2023-03-05T12:12:38.719Z,100584.94
2023-03-05T12:15:24.691Z,100584.50
2023-03-05T12:17:57.147Z,100584.22
2023-03-05T12:20:42.141Z,100570.50
2023-03-05T12:23:17.914Z,100573.03
2023-03-05T12:25:51.585Z,100574.13
2023-03-05T12:28:40.822Z,100567.63
2023-03-05T12:31:10.388Z,100558.44
2023-03-05T12:33:43.462Z,100559.22
2023-03-05T12:36:21.780Z,100546.41
2023-03-05T12:38:54.469Z,100548.69
2023-03-05T12:41:24.954Z,100543.00
2023-03-05T12:44:04.891Z,100536.53
2023-03-05T12:46:38.890Z,100533.44
2023-03-05T12:49:38.910Z,100529.59
2023-03-05T12:52:20.943Z,100510.66
2023-03-05T12:55:00.838Z,100522.44
2023-03-05T12:57:29.496Z,100502.94
2023-03-05T13:00:14.543Z,100511.50
2023-03-05T13:02:44.246Z,100512.22
2023-03-05T13:05:26.185Z,100500.72
2023-03-05T13:07:52.982Z,100509.88
2023-03-05T13:10:29.108Z,100497.19
2023-03-05T13:12:58.362Z,100497.19
2023-03-05T13:15:26.285Z,100508.50
2023-03-05T13:17:58.272Z,100502.44
2023-03-05T13:20:27.443Z,100496.47
2023-03-05T13:23:27.036Z,100482.69
2023-03-05T13:26:08.521Z,100488.47
2023-03-05T13:28:37.284Z,100491.22
2023-03-05T13:31:13.474Z,100482.81
2023-03-05T13:33:40.218Z,100475.47
2023-03-05T13:36:07.139Z,100471.13
2023-03-05T13:38:39.381Z,100472.50
2023-03-05T13:41:26.056Z,100471.84
2023-03-05T13:43:58.700Z,100456.19
2023-03-05T13:46:32.608Z,100460.56
2023-03-05T13:49:19.061Z,100452.16
2023-03-05T13:51:56.730Z,100444.19
2023-03-05T13:54:25.331Z,100440.88
2023-03-05T13:57:32.062Z,100444.88
2023-03-05T13:59:58.484Z,100429.13
2023-03-05T14:02:27.778Z,100429.56
2023-03-05T14:04:55.019Z,100431.06
2023-03-05T14:07:38.457Z,100430.84
2023-03-05T14:10:27.852Z,100426.66
2023-03-05T14:12:54.540Z,100430.91
2023-03-05T14:15:29.665Z,100420.56
2023-03-05T14:18:11.270Z,100415.16
2023-03-05T14:20:59.487Z,100413.91
2023-03-05T14:23:35.080Z,100407.03
2023-03-05T14:26:29.327Z,100404.84
2023-03-05T14:29:03.555Z,100404.84
2023-03-05T14:31:35.206Z,100398.63
2023-03-05T14:34:05.174Z,100395.53
2023-03-05T14:36:33.350Z,100391.13
2023-03-05T14:39:00.947Z,100391.72
2023-03-05T14:41:42.005Z,100386.84
2023-03-05T14:44:17.239Z,100385.38
2023-03-05T14:46:48.086Z,100377.69
2023-03-05T14:49:15.860Z,100360.38
2023-03-05T14:51:44.379Z,100359.22
2023-03-05T14:54:26.122Z,100358.56
2023-03-05T14:56:52.931Z,100359.22
2023-03-05T14:59:21.615Z,100358.75
2023-03-05T15:01:52.534Z,100355.16
2023-03-05T15:04:19.760Z,100346.53
2023-03-05T15:06:50.533Z,100343.38
2023-03-05T15:09:19.526Z,100336.22
2023-03-05T15:11:46.072Z,100329.53
2023-03-05T15:14:12.653Z,100326.75
2023-03-05T15:16:42.954Z,100328.56
2023-03-05T15:19:13.464Z,100334.31
2023-03-05T15:21:40.104Z,100327.63
2023-03-05T15:24:06.738Z,100320.28
2023-03-05T15:26:33.125Z,100314.75
2023-03-05T15:28:59.524Z,100319.00
2023-03-05T15:31:25.932Z,100310.53
2023-03-05T15:33:52.749Z,100316.88
2023-03-05T15:36:19.123Z,100311.78
2023-03-05T15:38:47.312Z,100305.63
2023-03-05T15:41:13.701Z,100305.00
2023-03-05T15:43:40.082Z,100300.00
2023-03-05T15:46:06.982Z,100297.75
2023-03-05T15:48:33.463Z,100295.09
2023-03-05T15:50:59.838Z,100290.75
2023-03-05T15:53:26.186Z,100288.81
2023-03-05T15:55:52.488Z,100292.44
2023-03-05T15:58:18.837Z,100286.16
2023-03-05T16:00:47.365Z,100278.75
2023-03-05T16:03:14.641Z,100282.25
2023-03-05T16:05:41.431Z,100271.63
2023-03-05T16:08:08.902Z,100264.28
2023-03-05T16:10:36.569Z,100262.56
2023-03-05T16:13:07.919Z,100258.00
2023-03-05T16:15:35.080Z,100260.31
2023-03-05T16:18:06.252Z,100261.63
2023-03-05T16:20:32.644Z,100260.56
2023-03-05T16:22:58.989Z,100254.16
2023-03-05T16:25:25.498Z,100258.00
2023-03-05T16:27:51.882Z,100260.13
2023-03-05T16:30:19.019Z,100252.50
2023-03-05T16:32:45.434Z,100251.72
2023-03-05T16:35:12.459Z,100253.78
2023-03-05T16:37:39.972Z,100244.84
2023-03-05T16:40:08.494Z,100245.69
2023-03-05T16:42:35.254Z,100242.41
2023-03-05T16:45:01.881Z,100236.44
2023-03-05T16:47:28.258Z,100243.56
2023-03-05T16:49:54.681Z,100241.13
2023-03-05T16:52:22.402Z,100240.28
2023-03-05T16:54:48.971Z,100240.59
2023-03-05T16:57:15.884Z,100242.94
2023-03-05T16:59:43.481Z,100245.59
2023-03-05T17:02:10.109Z,100247.81
2023-03-05T17:04:37.069Z,100238.56
2023-03-05T17:07:05.366Z,100241.88
2023-03-05T17:09:31.735Z,100245.59
2023-03-05T17:11:58.308Z,100232.19
2023-03-05T17:14:24.798Z,100241.03
2023-03-05T17:16:51.166Z,100240.28
2023-03-05T17:19:17.637Z,100235.72
2023-03-05T17:21:44.163Z,100226.66
2023-03-05T17:24:10.628Z,100231.44
2023-03-05T17:26:37.496Z,100236.75
2023-03-05T17:29:05.029Z,100226.34
2023-03-05T17:31:31.627Z,100231.00
2023-03-05T17:33:58.190Z,100226.88
2023-03-05T17:36:24.741Z,100216.56
2023-03-05T17:38:52.284Z,100218.91
2023-03-05T17:41:18.999Z,100222.53
2023-03-05T17:43:46.061Z,100224.44
2023-03-05T17:46:13.064Z,100223.69
2023-03-05T17:48:39.519Z,100222.63
2023-03-05T17:51:07.284Z,100212.53
2023-03-05T17:53:35.166Z,100212.66
2023-03-05T17:56:02.115Z,100217.84
2023-03-05T17:58:28.582Z,100212.53
2023-03-05T18:00:55.071Z,100207.34
2023-03-05T18:03:21.499Z,100210.28
2023-03-05T18:05:47.940Z,100210.19
2023-03-05T18:08:14.411Z,100208.72
2023-03-05T18:10:40.812Z,100211.47
2023-03-05T18:13:07.157Z,100216.78
2023-03-05T18:15:33.573Z,100213.38
2023-03-05T18:18:00.287Z,100192.75
2023-03-05T18:20:31.738Z,100208.91
2023-03-05T18:22:59.293Z,100199.47
2023-03-05T18:25:30.900Z,100199.56
2023-03-05T18:28:02.434Z,100211.66
2023-03-05T18:30:29.607Z,100194.25
2023-03-05T18:32:56.412Z,100190.88
2023-03-05T18:35:23.567Z,100195.41
2023-03-05T18:37:50.055Z,100198.06
2023-03-05T18:40:20.149Z,100198.06
2023-03-05T18:42:46.770Z,100199.75
2023-03-05T18:45:14.898Z,100192.84
2023-03-05T18:47:44.012Z,100188.41
2023-03-05T18:50:14.680Z,100173.66
2023-03-05T18:52:42.083Z,100187.66
2023-03-05T18:55:14.538Z,100184.28
2023-03-05T18:57:41.097Z,100175.44
2023-03-05T19:00:08.626Z,100176.59
2023-03-05T19:02:34.944Z,100173.66
2023-03-05T19:05:02.652Z,100178.09
2023-03-05T19:07:29.869Z,100174.59
2023-03-05T19:10:02.057Z,100178.09
2023-03-05T19:12:34.984Z,100174.50
2023-03-05T19:15:04.025Z,100170.22
2023-03-05T19:17:31.628Z,100165.97
2023-03-05T19:20:03.839Z,100169.91
2023-03-05T19:22:32.317Z,100166.38
2023-03-05T19:24:59.467Z,100167.22
2023-03-05T19:27:26.444Z,100160.34
2023-03-05T19:29:53.476Z,100157.69
2023-03-05T19:32:23.892Z,100151.53
2023-03-05T19:34:50.718Z,100145.69
2023-03-05T19:37:18.163Z,100147.59
2023-03-05T19:39:44.533Z,100148.53
2023-03-05T19:42:11.081Z,100151.09
2023-03-05T19:44:37.520Z,100144.81
2023-03-05T19:47:03.952Z,100142.38
2023-03-05T19:49:30.465Z,100140.06
2023-03-05T19:51:56.905Z,100142.06
2023-03-05T19:54:23.584Z,100129.84
2023-03-05T19:56:52.348Z,100128.91
2023-03-05T19:59:21.103Z,100139.63
2023-03-05T20:01:48.872Z,100131.78
2023-03-05T20:04:18.514Z,100128.25
2023-03-05T20:06:45.061Z,100127.50
2023-03-05T20:09:11.516Z,100119.88
2023-03-05T20:11:38.490Z,100123.25
2023-03-05T20:14:05.052Z,100126.75
2023-03-05T20:16:37.439Z,100122.41
2023-03-05T20:19:06.379Z,100121.56
2023-03-05T20:21:36.700Z,100119.97
2023-03-05T20:24:09.553Z,100122.63
2023-03-05T20:26:38.078Z,100122.53
2023-03-05T20:29:05.310Z,100119.31
2023-03-05T20:31:37.088Z,100113.03
2023-03-05T20:34:09.388Z,100109.75
2023-03-05T20:36:35.763Z,100106.25
2023-03-05T20:39:04.090Z,100112.41
2023-03-05T20:41:31.963Z,100109.88
2023-03-05T20:43:58.322Z,100110.06
2023-03-05T20:46:28.113Z,100111.13
2023-03-05T20:48:57.568Z,100102.31
2023-03-05T20:51:31.629Z,100099.88
2023-03-05T20:54:03.022Z,100094.75
2023-03-05T20:56:32.233Z,100099.22
2023-03-05T20:59:00.158Z,100093.28
2023-03-05T21:01:27.678Z,100093.28
2023-03-05T21:03:56.889Z,100094.34
2023-03-05T21:06:24.484Z,100083.75
2023-03-05T21:08:50.907Z,100088.84
2023-03-05T21:11:17.340Z,100082.00
2023-03-05T21:13:44.277Z,100086.47
2023-03-05T21:16:16.960Z,100079.28
2023-03-05T21:18:43.652Z,100077.25
2023-03-05T21:21:10.000Z,100075.47
2023-03-05T21:23:36.691Z,100073.97
2023-03-05T21:26:04.126Z,100059.09
2023-03-05T21:28:31.665Z,100060.59
2023-03-05T21:30:58.086Z,100072.19
2023-03-05T21:33:28.103Z,100062.41
2023-03-05T21:35:56.950Z,100059.94
2023-03-05T21:38:25.358Z,100051.03
2023-03-05T21:40:53.749Z,100053.69
2023-03-05T21:43:22.834Z,100052.22
2023-03-05T21:45:52.514Z,100052.31
2023-03-05T21:48:19.750Z,100048.81
2023-03-05T21:50:47.279Z,100031.94
2023-03-05T21:53:16.537Z,100025.69
2023-03-05T21:55:52.930Z,100032.78
2023-03-05T21:58:19.257Z,100028.22
2023-03-05T22:00:45.697Z,100016.66
2023-03-05T22:03:12.071Z,100015.06
2023-03-05T22:05:38.435Z,100009.78
2023-03-05T22:08:04.830Z,100017.00
2023-03-05T22:10:31.243Z,100007.22
2023-03-05T22:13:11.390Z,100005.41
2023-03-05T22:15:59.307Z,99993.31
2023-03-05T22:18:29.114Z,99996.72
2023-03-05T22:20:56.069Z,99986.41
2023-03-05T22:23:24.393Z,99970.28
2023-03-05T22:26:02.472Z,99990.03
2023-03-05T22:28:29.078Z,99981.22
2023-03-05T22:30:55.762Z,99978.69
2023-03-05T22:33:23.312Z,99983.88
2023-03-05T22:35:50.256Z,99975.91
2023-03-05T22:38:16.816Z,99971.03
2023-03-05T22:40:45.588Z,99974.53
2023-03-05T22:43:12.821Z,99967.22
2023-03-05T22:45:40.001Z,99964.56
2023-03-05T22:48:09.610Z,99959.28
2023-03-05T22:50:37.599Z,99955.22
2023-03-05T22:53:03.934Z,99949.81
2023-03-05T22:55:30.244Z,99943.16
2023-03-05T22:57:56.612Z,99952.69
2023-03-05T23:00:23.526Z,99932.84
2023-03-05T23:02:51.377Z,99946.84
2023-03-05T23:05:18.423Z,99931.44
2023-03-05T23:07:45.929Z,99935.78
2023-03-05T23:10:13.996Z,99926.16
2023-03-05T23:12:46.166Z,99924.44
2023-03-05T23:15:15.153Z,99925.28
2023-03-05T23:17:41.674Z,99924.16
2023-03-05T23:20:15.832Z,99920.31
2023-03-05T23:22:43.694Z,99916.09
2023-03-05T23:25:11.538Z,99921.28
2023-03-05T23:27:38.073Z,99922.97
2023-03-05T23:30:21.532Z,99923.72
2023-03-05T23:32:56.540Z,99922.00
2023-03-05T23:35:29.231Z,99915.75
2023-03-05T23:37:57.112Z,99917.47
2023-03-05T23:40:29.465Z,99913.22
2023-03-05T23:42:55.994Z,99910.88
2023-03-05T23:45:23.005Z,99910.78
2023-03-05T23:47:49.983Z,99912.50
2023-03-05T23:50:25.444Z,99899.25
2023-03-05T23:52:54.170Z,99902.94
2023-03-05T23:55:30.068Z,99910.16
2023-03-05T23:57:56.415Z,99899.44
